sensor_id;sensor_type;location;lat;lon;timestamp;P1;durP1;ratioP1;P2;durP2;ratioP2
49826;SDS011;35715;51.570;6.036;2023-07-02T00:01:43;12.68;;;5.90;;
49826;SDS011;35715;51.570;6.036;2023-07-02T00:04:08;9.38;;;5.72;;
49826;SDS011;35715;51.570;6.036;2023-07-02T00:06:35;9.75;;;4.45;;
49826;SDS011;35715;51.570;6.036;2023-07-02T00:09:08;8.30;;;6.07;;
49826;SDS011;35715;51.570;6.036;2023-07-02T00:11:40;13.82;;;6.45;;
49826;SDS011;35715;51.570;6.036;2023-07-02T00:14:07;13.20;;;5.28;;
49826;SDS011;35715;51.570;6.036;2023-07-02T00:16:38;10.07;;;5.75;;
49826;SDS011;35715;51.570;6.036;2023-07-02T00:19:05;6.43;;;4.70;;
49826;SDS011;35715;51.570;6.036;2023-07-02T00:21:31;10.32;;;5.82;;
49826;SDS011;35715;51.570;6.036;2023-07-02T00:23:58;5.97;;;4.90;;
49826;SDS011;35715;51.570;6.036;2023-07-02T00:26:25;10.73;;;5.30;;
49826;SDS011;35715;51.570;6.036;2023-07-02T00:28:53;9.88;;;6.13;;
49826;SDS011;35715;51.570;6.036;2023-07-02T00:31:19;14.30;;;7.18;;
49826;SDS011;35715;51.570;6.036;2023-07-02T00:33:45;12.43;;;6.40;;
49826;SDS011;35715;51.570;6.036;2023-07-02T00:36:10;12.15;;;5.53;;
49826;SDS011;35715;51.570;6.036;2023-07-02T00:38:40;16.83;;;6.53;;
49826;SDS011;35715;51.570;6.036;2023-07-02T00:41:06;11.75;;;5.93;;
49826;SDS011;35715;51.570;6.036;2023-07-02T00:43:32;13.32;;;7.35;;
49826;SDS011;35715;51.570;6.036;2023-07-02T00:45:57;15.70;;;7.28;;
49826;SDS011;35715;51.570;6.036;2023-07-02T00:48:23;13.05;;;6.88;;
49826;SDS011;35715;51.570;6.036;2023-07-02T00:50:48;12.98;;;6.88;;
49826;SDS011;35715;51.570;6.036;2023-07-02T00:53:13;11.50;;;7.50;;
49826;SDS011;35715;51.570;6.036;2023-07-02T00:55:39;12.15;;;7.90;;
49826;SDS011;35715;51.570;6.036;2023-07-02T00:58:04;14.98;;;7.57;;
49826;SDS011;35715;51.570;6.036;2023-07-02T01:00:30;10.98;;;7.80;;
49826;SDS011;35715;51.570;6.036;2023-07-02T01:02:55;14.73;;;6.88;;
49826;SDS011;35715;51.570;6.036;2023-07-02T01:05:28;12.85;;;7.20;;
49826;SDS011;35715;51.570;6.036;2023-07-02T01:08:03;15.05;;;8.13;;
49826;SDS011;35715;51.570;6.036;2023-07-02T01:10:31;18.10;;;7.97;;
49826;SDS011;35715;51.570;6.036;2023-07-02T01:13:08;12.90;;;8.25;;
49826;SDS011;35715;51.570;6.036;2023-07-02T01:15:37;11.93;;;8.60;;
49826;SDS011;35715;51.570;6.036;2023-07-02T01:18:05;15.20;;;9.25;;
49826;SDS011;35715;51.570;6.036;2023-07-02T01:20:31;16.40;;;8.65;;
49826;SDS011;35715;51.570;6.036;2023-07-02T01:22:58;16.15;;;9.73;;
49826;SDS011;35715;51.570;6.036;2023-07-02T01:25:28;19.08;;;10.10;;
49826;SDS011;35715;51.570;6.036;2023-07-02T01:27:54;16.20;;;9.85;;
49826;SDS011;35715;51.570;6.036;2023-07-02T01:30:20;17.15;;;9.68;;
49826;SDS011;35715;51.570;6.036;2023-07-02T01:32:46;20.73;;;11.60;;
49826;SDS011;35715;51.570;6.036;2023-07-02T01:35:11;20.30;;;9.70;;
49826;SDS011;35715;51.570;6.036;2023-07-02T01:37:37;16.45;;;11.07;;
49826;SDS011;35715;51.570;6.036;2023-07-02T01:40:03;20.33;;;10.05;;
49826;SDS011;35715;51.570;6.036;2023-07-02T01:42:32;18.92;;;11.65;;
49826;SDS011;35715;51.570;6.036;2023-07-02T01:45:01;16.30;;;11.02;;
49826;SDS011;35715;51.570;6.036;2023-07-02T01:47:26;15.98;;;10.07;;
49826;SDS011;35715;51.570;6.036;2023-07-02T01:49:52;20.95;;;10.35;;
49826;SDS011;35715;51.570;6.036;2023-07-02T01:52:17;19.95;;;12.35;;
49826;SDS011;35715;51.570;6.036;2023-07-02T01:54:42;14.93;;;10.70;;
49826;SDS011;35715;51.570;6.036;2023-07-02T01:57:08;18.50;;;12.20;;
49826;SDS011;35715;51.570;6.036;2023-07-02T01:59:34;27.27;;;11.85;;
49826;SDS011;35715;51.570;6.036;2023-07-02T02:01:59;22.63;;;13.73;;
49826;SDS011;35715;51.570;6.036;2023-07-02T02:04:25;23.33;;;14.15;;
49826;SDS011;35715;51.570;6.036;2023-07-02T02:06:50;21.05;;;14.10;;
49826;SDS011;35715;51.570;6.036;2023-07-02T02:09:17;25.70;;;12.68;;
49826;SDS011;35715;51.570;6.036;2023-07-02T02:11:44;21.73;;;13.80;;
49826;SDS011;35715;51.570;6.036;2023-07-02T02:14:12;22.42;;;14.07;;
49826;SDS011;35715;51.570;6.036;2023-07-02T02:16:37;18.30;;;12.07;;
49826;SDS011;35715;51.570;6.036;2023-07-02T02:19:03;25.90;;;14.25;;
49826;SDS011;35715;51.570;6.036;2023-07-02T02:21:29;26.08;;;14.05;;
49826;SDS011;35715;51.570;6.036;2023-07-02T02:23:54;29.27;;;15.68;;
49826;SDS011;35715;51.570;6.036;2023-07-02T02:26:20;29.85;;;15.05;;
49826;SDS011;35715;51.570;6.036;2023-07-02T02:28:46;22.65;;;13.93;;
49826;SDS011;35715;51.570;6.036;2023-07-02T02:31:13;24.73;;;13.75;;
49826;SDS011;35715;51.570;6.036;2023-07-02T02:33:38;29.73;;;16.58;;
49826;SDS011;35715;51.570;6.036;2023-07-02T02:36:04;40.85;;;18.73;;
49826;SDS011;35715;51.570;6.036;2023-07-02T02:38:29;31.77;;;15.75;;
49826;SDS011;35715;51.570;6.036;2023-07-02T02:40:54;28.98;;;16.85;;
49826;SDS011;35715;51.570;6.036;2023-07-02T02:43:21;21.02;;;14.88;;
49826;SDS011;35715;51.570;6.036;2023-07-02T02:45:47;29.75;;;17.63;;
49826;SDS011;35715;51.570;6.036;2023-07-02T02:48:13;28.13;;;16.63;;
49826;SDS011;35715;51.570;6.036;2023-07-02T02:50:38;38.10;;;16.23;;
49826;SDS011;35715;51.570;6.036;2023-07-02T02:53:08;29.77;;;16.00;;
49826;SDS011;35715;51.570;6.036;2023-07-02T02:55:33;25.80;;;14.95;;
49826;SDS011;35715;51.570;6.036;2023-07-02T02:57:59;26.02;;;17.17;;
49826;SDS011;35715;51.570;6.036;2023-07-02T03:00:24;30.50;;;17.23;;
49826;SDS011;35715;51.570;6.036;2023-07-02T03:02:50;27.20;;;15.88;;
49826;SDS011;35715;51.570;6.036;2023-07-02T03:05:15;29.58;;;16.75;;
49826;SDS011;35715;51.570;6.036;2023-07-02T03:07:41;23.00;;;15.55;;
49826;SDS011;35715;51.570;6.036;2023-07-02T03:10:07;29.80;;;18.00;;
49826;SDS011;35715;51.570;6.036;2023-07-02T03:12:33;27.73;;;16.83;;
49826;SDS011;35715;51.570;6.036;2023-07-02T03:14:58;27.33;;;16.10;;
49826;SDS011;35715;51.570;6.036;2023-07-02T03:17:23;28.80;;;17.60;;
49826;SDS011;35715;51.570;6.036;2023-07-02T03:19:49;29.55;;;14.77;;
49826;SDS011;35715;51.570;6.036;2023-07-02T03:22:15;30.25;;;17.00;;
49826;SDS011;35715;51.570;6.036;2023-07-02T03:24:40;33.78;;;16.52;;
49826;SDS011;35715;51.570;6.036;2023-07-02T03:27:09;27.25;;;16.10;;
49826;SDS011;35715;51.570;6.036;2023-07-02T03:29:34;27.02;;;16.27;;
49826;SDS011;35715;51.570;6.036;2023-07-02T03:32:00;29.08;;;16.38;;
49826;SDS011;35715;51.570;6.036;2023-07-02T03:34:26;24.85;;;17.00;;
49826;SDS011;35715;51.570;6.036;2023-07-02T03:36:52;24.38;;;14.80;;
49826;SDS011;35715;51.570;6.036;2023-07-02T03:39:17;24.30;;;17.05;;
49826;SDS011;35715;51.570;6.036;2023-07-02T03:41:43;30.17;;;17.50;;
49826;SDS011;35715;51.570;6.036;2023-07-02T03:44:09;26.33;;;16.67;;
49826;SDS011;35715;51.570;6.036;2023-07-02T03:46:34;24.48;;;15.48;;
49826;SDS011;35715;51.570;6.036;2023-07-02T03:49:00;28.73;;;15.90;;
49826;SDS011;35715;51.570;6.036;2023-07-02T03:51:25;25.20;;;16.63;;
49826;SDS011;35715;51.570;6.036;2023-07-02T03:53:51;26.80;;;15.90;;
49826;SDS011;35715;51.570;6.036;2023-07-02T03:56:16;31.92;;;19.08;;
49826;SDS011;35715;51.570;6.036;2023-07-02T03:58:41;30.33;;;16.63;;
49826;SDS011;35715;51.570;6.036;2023-07-02T04:01:07;32.75;;;17.05;;
49826;SDS011;35715;51.570;6.036;2023-07-02T04:03:33;41.92;;;17.73;;
49826;SDS011;35715;51.570;6.036;2023-07-02T04:05:58;25.35;;;16.90;;
49826;SDS011;35715;51.570;6.036;2023-07-02T04:08:24;28.05;;;15.35;;
49826;SDS011;35715;51.570;6.036;2023-07-02T04:10:53;23.50;;;15.05;;
49826;SDS011;35715;51.570;6.036;2023-07-02T04:13:19;29.52;;;16.38;;
49826;SDS011;35715;51.570;6.036;2023-07-02T04:15:44;26.30;;;15.75;;
49826;SDS011;35715;51.570;6.036;2023-07-02T04:18:10;31.98;;;15.90;;
49826;SDS011;35715;51.570;6.036;2023-07-02T04:20:36;29.60;;;15.40;;
49826;SDS011;35715;51.570;6.036;2023-07-02T04:23:03;32.17;;;16.42;;
49826;SDS011;35715;51.570;6.036;2023-07-02T04:25:29;27.08;;;16.50;;
49826;SDS011;35715;51.570;6.036;2023-07-02T04:27:55;26.05;;;15.88;;
49826;SDS011;35715;51.570;6.036;2023-07-02T04:30:21;23.58;;;14.48;;
49826;SDS011;35715;51.570;6.036;2023-07-02T04:32:47;32.97;;;16.98;;
49826;SDS011;35715;51.570;6.036;2023-07-02T04:35:12;33.03;;;15.23;;
49826;SDS011;35715;51.570;6.036;2023-07-02T04:37:38;25.02;;;15.05;;
49826;SDS011;35715;51.570;6.036;2023-07-02T04:40:04;26.33;;;14.98;;
49826;SDS011;35715;51.570;6.036;2023-07-02T04:42:39;32.42;;;15.10;;
49826;SDS011;35715;51.570;6.036;2023-07-02T04:45:06;22.42;;;15.18;;
49826;SDS011;35715;51.570;6.036;2023-07-02T04:47:33;27.67;;;16.38;;
49826;SDS011;35715;51.570;6.036;2023-07-02T04:49:59;25.80;;;14.88;;
49826;SDS011;35715;51.570;6.036;2023-07-02T04:52:25;26.83;;;14.73;;
49826;SDS011;35715;51.570;6.036;2023-07-02T04:54:50;29.05;;;16.50;;
49826;SDS011;35715;51.570;6.036;2023-07-02T04:57:18;26.10;;;14.77;;
49826;SDS011;35715;51.570;6.036;2023-07-02T04:59:44;23.88;;;14.52;;
49826;SDS011;35715;51.570;6.036;2023-07-02T05:02:10;27.08;;;16.13;;
49826;SDS011;35715;51.570;6.036;2023-07-02T05:04:35;27.52;;;14.40;;
49826;SDS011;35715;51.570;6.036;2023-07-02T05:07:04;24.33;;;14.50;;
49826;SDS011;35715;51.570;6.036;2023-07-02T05:09:29;22.55;;;14.02;;
49826;SDS011;35715;51.570;6.036;2023-07-02T05:11:55;27.35;;;14.27;;
49826;SDS011;35715;51.570;6.036;2023-07-02T05:14:20;25.52;;;14.00;;
49826;SDS011;35715;51.570;6.036;2023-07-02T05:16:46;30.58;;;13.77;;
49826;SDS011;35715;51.570;6.036;2023-07-02T05:19:11;26.17;;;13.68;;
49826;SDS011;35715;51.570;6.036;2023-07-02T05:21:37;27.65;;;16.05;;
49826;SDS011;35715;51.570;6.036;2023-07-02T05:24:02;32.05;;;14.32;;
49826;SDS011;35715;51.570;6.036;2023-07-02T05:26:28;26.92;;;13.10;;
49826;SDS011;35715;51.570;6.036;2023-07-02T05:28:53;28.95;;;14.40;;
49826;SDS011;35715;51.570;6.036;2023-07-02T05:31:18;21.45;;;13.18;;
49826;SDS011;35715;51.570;6.036;2023-07-02T05:33:44;41.53;;;13.45;;
49826;SDS011;35715;51.570;6.036;2023-07-02T05:36:10;25.73;;;13.52;;
49826;SDS011;35715;51.570;6.036;2023-07-02T05:38:35;19.08;;;11.80;;
49826;SDS011;35715;51.570;6.036;2023-07-02T05:41:02;37.00;;;13.95;;
49826;SDS011;35715;51.570;6.036;2023-07-02T05:43:28;20.33;;;12.18;;
49826;SDS011;35715;51.570;6.036;2023-07-02T05:45:53;22.20;;;12.05;;
49826;SDS011;35715;51.570;6.036;2023-07-02T05:48:18;22.83;;;11.65;;
49826;SDS011;35715;51.570;6.036;2023-07-02T05:50:44;29.10;;;12.35;;
49826;SDS011;35715;51.570;6.036;2023-07-02T05:53:09;19.85;;;11.55;;
49826;SDS011;35715;51.570;6.036;2023-07-02T05:55:36;27.55;;;13.70;;
49826;SDS011;35715;51.570;6.036;2023-07-02T05:58:01;27.00;;;12.10;;
49826;SDS011;35715;51.570;6.036;2023-07-02T06:00:28;31.98;;;12.30;;
49826;SDS011;35715;51.570;6.036;2023-07-02T06:02:53;24.67;;;11.57;;
49826;SDS011;35715;51.570;6.036;2023-07-02T06:05:19;27.92;;;12.98;;
49826;SDS011;35715;51.570;6.036;2023-07-02T06:07:44;15.27;;;10.38;;
49826;SDS011;35715;51.570;6.036;2023-07-02T06:10:11;21.80;;;12.35;;
49826;SDS011;35715;51.570;6.036;2023-07-02T06:12:36;16.48;;;9.88;;
49826;SDS011;35715;51.570;6.036;2023-07-02T06:15:02;18.17;;;12.02;;
49826;SDS011;35715;51.570;6.036;2023-07-02T06:17:28;22.55;;;11.75;;
49826;SDS011;35715;51.570;6.036;2023-07-02T06:19:55;23.63;;;11.85;;
49826;SDS011;35715;51.570;6.036;2023-07-02T06:22:21;24.05;;;12.48;;
49826;SDS011;35715;51.570;6.036;2023-07-02T06:24:46;23.20;;;9.88;;
49826;SDS011;35715;51.570;6.036;2023-07-02T06:27:12;21.38;;;10.23;;
49826;SDS011;35715;51.570;6.036;2023-07-02T06:29:37;21.40;;;10.23;;
49826;SDS011;35715;51.570;6.036;2023-07-02T06:32:02;21.92;;;10.15;;
49826;SDS011;35715;51.570;6.036;2023-07-02T06:34:28;24.08;;;12.57;;
49826;SDS011;35715;51.570;6.036;2023-07-02T06:36:53;19.30;;;10.18;;
49826;SDS011;35715;51.570;6.036;2023-07-02T06:39:19;21.17;;;10.40;;
49826;SDS011;35715;51.570;6.036;2023-07-02T06:41:44;23.67;;;9.02;;
49826;SDS011;35715;51.570;6.036;2023-07-02T06:44:10;18.67;;;10.02;;
49826;SDS011;35715;51.570;6.036;2023-07-02T06:46:35;25.80;;;10.70;;
49826;SDS011;35715;51.570;6.036;2023-07-02T06:49:00;20.23;;;10.80;;
49826;SDS011;35715;51.570;6.036;2023-07-02T06:51:26;24.25;;;11.25;;
49826;SDS011;35715;51.570;6.036;2023-07-02T06:53:54;25.60;;;10.63;;
49826;SDS011;35715;51.570;6.036;2023-07-02T06:56:19;16.15;;;9.30;;
49826;SDS011;35715;51.570;6.036;2023-07-02T06:58:45;21.90;;;10.32;;
49826;SDS011;35715;51.570;6.036;2023-07-02T07:01:10;17.83;;;10.85;;
49826;SDS011;35715;51.570;6.036;2023-07-02T07:03:36;18.95;;;9.27;;
49826;SDS011;35715;51.570;6.036;2023-07-02T07:06:01;21.83;;;9.38;;
49826;SDS011;35715;51.570;6.036;2023-07-02T07:08:27;24.98;;;10.88;;
49826;SDS011;35715;51.570;6.036;2023-07-02T07:10:53;19.65;;;10.57;;
49826;SDS011;35715;51.570;6.036;2023-07-02T07:13:18;20.13;;;9.52;;
49826;SDS011;35715;51.570;6.036;2023-07-02T07:15:43;17.17;;;8.77;;
49826;SDS011;35715;51.570;6.036;2023-07-02T07:18:09;19.55;;;9.35;;
49826;SDS011;35715;51.570;6.036;2023-07-02T07:20:35;24.45;;;10.05;;
49826;SDS011;35715;51.570;6.036;2023-07-02T07:23:05;22.63;;;8.70;;
49826;SDS011;35715;51.570;6.036;2023-07-02T07:25:30;19.87;;;9.70;;
49826;SDS011;35715;51.570;6.036;2023-07-02T07:27:56;17.40;;;9.25;;
49826;SDS011;35715;51.570;6.036;2023-07-02T07:30:22;23.23;;;9.32;;
49826;SDS011;35715;51.570;6.036;2023-07-02T07:32:57;18.98;;;8.70;;
49826;SDS011;35715;51.570;6.036;2023-07-02T07:35:22;17.83;;;8.35;;
49826;SDS011;35715;51.570;6.036;2023-07-02T07:37:48;19.20;;;9.38;;
49826;SDS011;35715;51.570;6.036;2023-07-02T07:40:13;19.48;;;8.18;;
49826;SDS011;35715;51.570;6.036;2023-07-02T07:42:40;16.88;;;8.25;;
49826;SDS011;35715;51.570;6.036;2023-07-02T07:45:05;16.73;;;8.45;;
49826;SDS011;35715;51.570;6.036;2023-07-02T07:47:31;16.15;;;10.00;;
49826;SDS011;35715;51.570;6.036;2023-07-02T07:49:57;11.43;;;7.72;;
49826;SDS011;35715;51.570;6.036;2023-07-02T07:52:22;15.65;;;7.60;;
49826;SDS011;35715;51.570;6.036;2023-07-02T07:54:47;21.35;;;8.93;;
49826;SDS011;35715;51.570;6.036;2023-07-02T07:57:13;13.85;;;7.15;;
49826;SDS011;35715;51.570;6.036;2023-07-02T07:59:38;17.15;;;6.93;;
49826;SDS011;35715;51.570;6.036;2023-07-02T08:02:04;12.70;;;6.50;;
49826;SDS011;35715;51.570;6.036;2023-07-02T08:04:29;8.80;;;4.97;;
49826;SDS011;35715;51.570;6.036;2023-07-02T08:06:55;14.48;;;7.70;;
49826;SDS011;35715;51.570;6.036;2023-07-02T08:09:23;17.35;;;8.32;;
49826;SDS011;35715;51.570;6.036;2023-07-02T08:11:49;18.23;;;8.38;;
49826;SDS011;35715;51.570;6.036;2023-07-02T08:14:16;16.83;;;6.57;;
49826;SDS011;35715;51.570;6.036;2023-07-02T08:16:43;13.10;;;7.40;;
49826;SDS011;35715;51.570;6.036;2023-07-02T08:19:09;9.32;;;6.40;;
49826;SDS011;35715;51.570;6.036;2023-07-02T08:21:35;11.30;;;6.72;;
49826;SDS011;35715;51.570;6.036;2023-07-02T08:24:00;19.05;;;9.18;;
49826;SDS011;35715;51.570;6.036;2023-07-02T08:26:26;12.20;;;7.05;;
49826;SDS011;35715;51.570;6.036;2023-07-02T08:28:51;13.35;;;6.70;;
49826;SDS011;35715;51.570;6.036;2023-07-02T08:31:16;18.23;;;7.88;;
49826;SDS011;35715;51.570;6.036;2023-07-02T08:33:42;14.48;;;7.03;;
49826;SDS011;35715;51.570;6.036;2023-07-02T08:36:07;16.95;;;6.82;;
49826;SDS011;35715;51.570;6.036;2023-07-02T08:38:32;13.27;;;6.18;;
49826;SDS011;35715;51.570;6.036;2023-07-02T08:40:58;14.55;;;6.60;;
49826;SDS011;35715;51.570;6.036;2023-07-02T08:43:23;9.18;;;6.00;;
49826;SDS011;35715;51.570;6.036;2023-07-02T08:45:51;15.52;;;6.60;;
49826;SDS011;35715;51.570;6.036;2023-07-02T08:48:17;10.10;;;6.22;;
49826;SDS011;35715;51.570;6.036;2023-07-02T08:50:47;13.65;;;6.85;;
49826;SDS011;35715;51.570;6.036;2023-07-02T08:53:14;16.38;;;6.38;;
49826;SDS011;35715;51.570;6.036;2023-07-02T08:55:39;12.07;;;6.82;;
49826;SDS011;35715;51.570;6.036;2023-07-02T08:58:05;12.90;;;7.60;;
49826;SDS011;35715;51.570;6.036;2023-07-02T09:00:30;12.07;;;6.53;;
49826;SDS011;35715;51.570;6.036;2023-07-02T09:03:10;10.20;;;6.93;;
49826;SDS011;35715;51.570;6.036;2023-07-02T09:05:46;9.73;;;6.38;;
49826;SDS011;35715;51.570;6.036;2023-07-02T09:08:13;14.00;;;5.90;;
49826;SDS011;35715;51.570;6.036;2023-07-02T09:10:48;10.75;;;6.75;;
49826;SDS011;35715;51.570;6.036;2023-07-02T09:13:14;11.43;;;6.07;;
49826;SDS011;35715;51.570;6.036;2023-07-02T09:15:40;24.95;;;6.95;;
49826;SDS011;35715;51.570;6.036;2023-07-02T09:18:15;18.85;;;8.20;;
49826;SDS011;35715;51.570;6.036;2023-07-02T09:20:45;15.70;;;5.80;;
49826;SDS011;35715;51.570;6.036;2023-07-02T09:23:11;12.63;;;6.72;;
49826;SDS011;35715;51.570;6.036;2023-07-02T09:25:37;10.38;;;6.97;;
49826;SDS011;35715;51.570;6.036;2023-07-02T09:28:25;16.45;;;5.53;;
49826;SDS011;35715;51.570;6.036;2023-07-02T09:30:53;10.23;;;6.15;;
49826;SDS011;35715;51.570;6.036;2023-07-02T09:33:20;12.50;;;6.30;;
49826;SDS011;35715;51.570;6.036;2023-07-02T09:35:46;10.18;;;5.75;;
49826;SDS011;35715;51.570;6.036;2023-07-02T09:38:12;19.25;;;6.63;;
49826;SDS011;35715;51.570;6.036;2023-07-02T09:40:41;8.23;;;5.30;;
49826;SDS011;35715;51.570;6.036;2023-07-02T09:43:14;17.55;;;6.40;;
49826;SDS011;35715;51.570;6.036;2023-07-02T09:45:44;13.05;;;7.55;;
49826;SDS011;35715;51.570;6.036;2023-07-02T09:48:14;13.35;;;6.53;;
49826;SDS011;35715;51.570;6.036;2023-07-02T09:50:44;7.72;;;5.72;;
49826;SDS011;35715;51.570;6.036;2023-07-02T09:53:11;12.30;;;5.45;;
49826;SDS011;35715;51.570;6.036;2023-07-02T09:55:43;16.33;;;6.45;;
49826;SDS011;35715;51.570;6.036;2023-07-02T09:58:09;11.32;;;7.07;;
49826;SDS011;35715;51.570;6.036;2023-07-02T10:00:36;10.38;;;6.03;;
49826;SDS011;35715;51.570;6.036;2023-07-02T10:03:03;11.03;;;6.93;;
49826;SDS011;35715;51.570;6.036;2023-07-02T10:05:29;12.02;;;6.30;;
49826;SDS011;35715;51.570;6.036;2023-07-02T10:07:56;11.60;;;6.68;;
49826;SDS011;35715;51.570;6.036;2023-07-02T10:10:31;12.43;;;6.95;;
49826;SDS011;35715;51.570;6.036;2023-07-02T10:12:57;7.47;;;5.93;;
49826;SDS011;35715;51.570;6.036;2023-07-02T10:15:24;14.80;;;7.57;;
49826;SDS011;35715;51.570;6.036;2023-07-02T10:18:02;10.82;;;6.45;;
49826;SDS011;35715;51.570;6.036;2023-07-02T10:20:35;12.45;;;5.68;;
49826;SDS011;35715;51.570;6.036;2023-07-02T10:23:03;12.40;;;6.80;;
49826;SDS011;35715;51.570;6.036;2023-07-02T10:25:33;8.98;;;6.63;;
49826;SDS011;35715;51.570;6.036;2023-07-02T10:28:13;10.80;;;5.53;;
49826;SDS011;35715;51.570;6.036;2023-07-02T10:30:47;8.82;;;5.80;;
49826;SDS011;35715;51.570;6.036;2023-07-02T10:33:14;9.13;;;6.97;;
49826;SDS011;35715;51.570;6.036;2023-07-02T10:35:46;8.85;;;5.85;;
49826;SDS011;35715;51.570;6.036;2023-07-02T10:38:21;9.73;;;6.32;;
49826;SDS011;35715;51.570;6.036;2023-07-02T10:40:53;13.95;;;6.43;;
49826;SDS011;35715;51.570;6.036;2023-07-02T10:43:26;15.27;;;7.03;;
49826;SDS011;35715;51.570;6.036;2023-07-02T10:45:53;10.82;;;6.35;;
49826;SDS011;35715;51.570;6.036;2023-07-02T10:48:19;11.82;;;7.43;;
49826;SDS011;35715;51.570;6.036;2023-07-02T10:50:44;13.50;;;7.65;;
49826;SDS011;35715;51.570;6.036;2023-07-02T10:53:16;13.27;;;7.35;;
49826;SDS011;35715;51.570;6.036;2023-07-02T10:55:45;9.15;;;6.38;;
49826;SDS011;35715;51.570;6.036;2023-07-02T10:58:11;12.52;;;6.68;;
49826;SDS011;35715;51.570;6.036;2023-07-02T11:00:44;7.53;;;5.70;;
49826;SDS011;35715;51.570;6.036;2023-07-02T11:05:45;18.05;;;6.68;;
49826;SDS011;35715;51.570;6.036;2023-07-02T11:08:11;9.65;;;6.07;;
49826;SDS011;35715;51.570;6.036;2023-07-02T11:10:37;13.50;;;6.63;;
49826;SDS011;35715;51.570;6.036;2023-07-02T11:15:41;7.93;;;5.13;;
49826;SDS011;35715;51.570;6.036;2023-07-02T11:18:13;10.50;;;6.90;;
49826;SDS011;35715;51.570;6.036;2023-07-02T11:20:40;16.80;;;7.97;;
49826;SDS011;35715;51.570;6.036;2023-07-02T11:23:19;23.80;;;7.20;;
49826;SDS011;35715;51.570;6.036;2023-07-02T11:25:58;14.23;;;6.88;;
49826;SDS011;35715;51.570;6.036;2023-07-02T11:28:24;16.85;;;6.95;;
49826;SDS011;35715;51.570;6.036;2023-07-02T11:30:51;11.70;;;7.47;;
49826;SDS011;35715;51.570;6.036;2023-07-02T11:33:17;15.88;;;7.70;;
49826;SDS011;35715;51.570;6.036;2023-07-02T11:35:42;10.23;;;6.38;;
49826;SDS011;35715;51.570;6.036;2023-07-02T11:38:10;17.65;;;7.15;;
49826;SDS011;35715;51.570;6.036;2023-07-02T11:40:36;10.57;;;6.78;;
49826;SDS011;35715;51.570;6.036;2023-07-02T11:43:02;14.23;;;8.18;;
49826;SDS011;35715;51.570;6.036;2023-07-02T11:45:27;12.70;;;6.15;;
49826;SDS011;35715;51.570;6.036;2023-07-02T11:47:53;15.50;;;7.80;;
49826;SDS011;35715;51.570;6.036;2023-07-02T11:50:19;13.30;;;6.47;;
49826;SDS011;35715;51.570;6.036;2023-07-02T11:52:45;13.13;;;6.68;;
49826;SDS011;35715;51.570;6.036;2023-07-02T11:55:10;24.67;;;8.40;;
49826;SDS011;35715;51.570;6.036;2023-07-02T11:57:35;14.80;;;7.65;;
49826;SDS011;35715;51.570;6.036;2023-07-02T12:00:01;14.75;;;7.43;;
49826;SDS011;35715;51.570;6.036;2023-07-02T12:02:26;14.50;;;8.10;;
49826;SDS011;35715;51.570;6.036;2023-07-02T12:04:52;12.48;;;6.90;;
49826;SDS011;35715;51.570;6.036;2023-07-02T12:07:17;13.88;;;8.93;;
49826;SDS011;35715;51.570;6.036;2023-07-02T12:09:43;12.63;;;7.35;;
49826;SDS011;35715;51.570;6.036;2023-07-02T12:12:10;12.43;;;7.05;;
49826;SDS011;35715;51.570;6.036;2023-07-02T12:14:36;12.25;;;6.75;;
49826;SDS011;35715;51.570;6.036;2023-07-02T12:17:02;17.08;;;7.85;;
49826;SDS011;35715;51.570;6.036;2023-07-02T12:19:28;15.57;;;7.15;;
49826;SDS011;35715;51.570;6.036;2023-07-02T12:21:53;12.43;;;7.40;;
49826;SDS011;35715;51.570;6.036;2023-07-02T12:24:19;12.13;;;6.00;;
49826;SDS011;35715;51.570;6.036;2023-07-02T12:26:44;15.93;;;8.45;;
49826;SDS011;35715;51.570;6.036;2023-07-02T12:29:10;12.68;;;8.32;;
49826;SDS011;35715;51.570;6.036;2023-07-02T12:31:35;15.68;;;7.68;;
49826;SDS011;35715;51.570;6.036;2023-07-02T12:34:01;14.10;;;7.80;;
49826;SDS011;35715;51.570;6.036;2023-07-02T12:36:28;19.02;;;8.80;;
49826;SDS011;35715;51.570;6.036;2023-07-02T12:38:53;12.65;;;7.72;;
49826;SDS011;35715;51.570;6.036;2023-07-02T12:41:18;15.57;;;7.88;;
49826;SDS011;35715;51.570;6.036;2023-07-02T12:43:44;24.15;;;8.38;;
49826;SDS011;35715;51.570;6.036;2023-07-02T12:46:09;16.40;;;7.18;;
49826;SDS011;35715;51.570;6.036;2023-07-02T12:48:35;19.83;;;7.53;;
49826;SDS011;35715;51.570;6.036;2023-07-02T12:51:00;22.67;;;10.65;;
49826;SDS011;35715;51.570;6.036;2023-07-02T12:53:26;22.35;;;8.27;;
49826;SDS011;35715;51.570;6.036;2023-07-02T12:55:52;19.40;;;7.55;;
49826;SDS011;35715;51.570;6.036;2023-07-02T12:58:18;18.63;;;8.07;;
49826;SDS011;35715;51.570;6.036;2023-07-02T13:00:44;15.65;;;7.80;;
49826;SDS011;35715;51.570;6.036;2023-07-02T13:03:11;11.07;;;6.93;;
49826;SDS011;35715;51.570;6.036;2023-07-02T13:05:37;21.40;;;8.80;;
49826;SDS011;35715;51.570;6.036;2023-07-02T13:08:03;13.73;;;8.35;;
49826;SDS011;35715;51.570;6.036;2023-07-02T13:10:29;19.27;;;9.13;;
49826;SDS011;35715;51.570;6.036;2023-07-02T13:12:55;16.15;;;7.85;;
49826;SDS011;35715;51.570;6.036;2023-07-02T13:15:21;10.82;;;7.13;;
49826;SDS011;35715;51.570;6.036;2023-07-02T13:17:47;13.40;;;8.02;;
49826;SDS011;35715;51.570;6.036;2023-07-02T13:20:12;10.48;;;6.47;;
49826;SDS011;35715;51.570;6.036;2023-07-02T13:22:38;10.90;;;6.13;;
49826;SDS011;35715;51.570;6.036;2023-07-02T13:25:03;7.82;;;5.68;;
49826;SDS011;35715;51.570;6.036;2023-07-02T13:27:32;11.55;;;6.55;;
49826;SDS011;35715;51.570;6.036;2023-07-02T13:29:57;10.63;;;6.65;;
49826;SDS011;35715;51.570;6.036;2023-07-02T13:32:23;14.30;;;7.40;;
49826;SDS011;35715;51.570;6.036;2023-07-02T13:34:48;10.90;;;6.45;;
49826;SDS011;35715;51.570;6.036;2023-07-02T13:37:14;13.43;;;7.05;;
49826;SDS011;35715;51.570;6.036;2023-07-02T13:39:43;9.98;;;6.45;;
49826;SDS011;35715;51.570;6.036;2023-07-02T13:42:08;10.65;;;5.68;;
49826;SDS011;35715;51.570;6.036;2023-07-02T13:44:34;13.65;;;6.18;;
49826;SDS011;35715;51.570;6.036;2023-07-02T13:46:59;9.75;;;5.25;;
49826;SDS011;35715;51.570;6.036;2023-07-02T13:49:25;12.40;;;5.75;;
49826;SDS011;35715;51.570;6.036;2023-07-02T13:51:50;10.00;;;4.78;;
49826;SDS011;35715;51.570;6.036;2023-07-02T13:54:15;10.02;;;4.88;;
49826;SDS011;35715;51.570;6.036;2023-07-02T13:56:41;6.47;;;4.80;;
49826;SDS011;35715;51.570;6.036;2023-07-02T13:59:06;9.85;;;5.65;;
49826;SDS011;35715;51.570;6.036;2023-07-02T14:01:32;11.23;;;5.13;;
49826;SDS011;35715;51.570;6.036;2023-07-02T14:03:58;10.98;;;4.93;;
49826;SDS011;35715;51.570;6.036;2023-07-02T14:06:25;7.28;;;4.50;;
49826;SDS011;35715;51.570;6.036;2023-07-02T14:08:50;13.38;;;4.65;;
49826;SDS011;35715;51.570;6.036;2023-07-02T14:11:16;9.40;;;4.65;;
49826;SDS011;35715;51.570;6.036;2023-07-02T14:13:41;8.68;;;4.80;;
49826;SDS011;35715;51.570;6.036;2023-07-02T14:16:07;12.82;;;5.03;;
49826;SDS011;35715;51.570;6.036;2023-07-02T14:18:32;16.27;;;6.47;;
49826;SDS011;35715;51.570;6.036;2023-07-02T14:20:57;11.50;;;4.60;;
49826;SDS011;35715;51.570;6.036;2023-07-02T14:23:23;9.20;;;5.88;;
49826;SDS011;35715;51.570;6.036;2023-07-02T14:25:48;10.57;;;4.65;;
49826;SDS011;35715;51.570;6.036;2023-07-02T14:28:14;7.20;;;4.00;;
49826;SDS011;35715;51.570;6.036;2023-07-02T14:30:39;9.02;;;4.95;;
49826;SDS011;35715;51.570;6.036;2023-07-02T14:33:05;7.35;;;4.53;;